createdAt,value
2017-07-03T00:00:01.660Z,16.36
2017-07-03T00:00:06.317Z,16.36
2017-07-03T00:00:10.653Z,16.36
2017-07-03T00:00:14.983Z,16.32
2017-07-03T00:00:19.447Z,16.36
2017-07-03T00:00:23.898Z,16.32
2017-07-03T00:00:28.226Z,16.4
2017-07-03T00:00:32.666Z,16.36
2017-07-03T00:00:37.105Z,16.4
2017-07-03T00:00:41.570Z,16.34
2017-07-03T00:00:46.014Z,16.36
2017-07-03T00:00:50.360Z,16.37
2017-07-03T00:00:54.807Z,16.34
2017-07-03T00:00:59.278Z,16.3
2017-07-03T00:01:03.730Z,16.36
2017-07-03T00:01:08.175Z,16.37
2017-07-03T00:01:12.495Z,16.32
2017-07-03T00:01:16.713Z,16.36
2017-07-03T00:01:21.170Z,16.32
2017-07-03T00:01:25.620Z,16.4
2017-07-03T00:01:30.094Z,16.36
2017-07-03T00:01:34.546Z,16.36
2017-07-03T00:01:39.003Z,16.32
2017-07-03T00:01:43.517Z,16.34
2017-07-03T00:01:47.979Z,16.4
2017-07-03T00:01:52.312Z,16.42
2017-07-03T00:01:56.406Z,16.36
2017-07-03T00:02:00.751Z,16.33
2017-07-03T00:02:05.327Z,16.36
2017-07-03T00:02:09.790Z,16.37
2017-07-03T00:02:14.244Z,16.4
2017-07-03T00:02:18.710Z,16.37
2017-07-03T00:02:23.043Z,16.32
2017-07-03T00:02:27.497Z,16.36
2017-07-03T00:02:31.827Z,16.37
2017-07-03T00:02:36.266Z,16.36
2017-07-03T00:02:40.731Z,16.36
2017-07-03T00:02:45.192Z,16.32
2017-07-03T00:02:49.644Z,16.37
2017-07-03T00:02:54.106Z,16.36
2017-07-03T00:02:58.336Z,16.36
2017-07-03T00:03:02.786Z,16.26
2017-07-03T00:03:07.246Z,16.32
2017-07-03T00:03:11.701Z,16.3
2017-07-03T00:03:16.145Z,16.34
2017-07-03T00:03:20.604Z,16.33
2017-07-03T00:03:25.051Z,16.26
2017-07-03T00:03:29.370Z,16.36
2017-07-03T00:03:33.823Z,16.26
2017-07-03T00:03:38.327Z,16.33
2017-07-03T00:03:42.650Z,16.3
2017-07-03T00:03:47.099Z,16.27
2017-07-03T00:03:51.548Z,16.29
2017-07-03T00:03:56.014Z,16.33
2017-07-03T00:04:00.517Z,16.37
2017-07-03T00:04:04.738Z,16.33
2017-07-03T00:04:09.182Z,16.3
2017-07-03T00:04:13.650Z,16.23
2017-07-03T00:04:18.110Z,16.27
2017-07-03T00:04:22.561Z,16.3
2017-07-03T00:04:27.005Z,16.3
2017-07-03T00:04:31.340Z,16.36
2017-07-03T00:04:35.681Z,16.34
2017-07-03T00:04:40.136Z,16.36
2017-07-03T00:04:44.568Z,16.33
2017-07-03T00:04:48.902Z,16.29
2017-07-03T00:04:53.362Z,16.37
2017-07-03T00:04:57.861Z,16.36
2017-07-03T00:05:02.319Z,16.25
2017-07-03T00:05:06.648Z,16.27
2017-07-03T00:05:11.097Z,16.32
2017-07-03T00:05:15.600Z,16.26
2017-07-03T00:05:19.814Z,16.27
2017-07-03T00:05:24.150Z,16.3
2017-07-03T00:05:28.589Z,16.34
2017-07-03T00:05:33.085Z,16.26
2017-07-03T00:05:37.423Z,16.33
2017-07-03T00:05:41.774Z,16.29
2017-07-03T00:05:46.237Z,16.36
2017-07-03T00:05:50.673Z,16.33
2017-07-03T00:05:55.071Z,16.33
2017-07-03T00:05:59.517Z,16.29
2017-07-03T00:06:03.845Z,16.3
2017-07-03T00:06:08.182Z,16.3
2017-07-03T00:06:12.641Z,16.3
2017-07-03T00:06:17.094Z,16.33
2017-07-03T00:06:21.547Z,16.34
2017-07-03T00:06:25.997Z,16.29
2017-07-03T00:06:30.464Z,16.3
2017-07-03T00:06:34.981Z,16.3
2017-07-03T00:06:39.444Z,16.32
2017-07-03T00:06:43.892Z,16.29
2017-07-03T00:06:48.349Z,16.33
2017-07-03T00:06:52.802Z,16.36
2017-07-03T00:06:57.147Z,16.26
2017-07-03T00:07:01.596Z,16.3
2017-07-03T00:07:05.933Z,16.27
2017-07-03T00:07:10.375Z,16.29
2017-07-03T00:07:14.815Z,16.29
2017-07-03T00:07:19.260Z,16.34
2017-07-03T00:07:23.707Z,16.32
2017-07-03T00:07:28.166Z,16.3
2017-07-03T00:07:32.653Z,16.29
2017-07-03T00:07:37.102Z,16.33
2017-07-03T00:07:41.421Z,16.34
2017-07-03T00:07:45.764Z,16.26
2017-07-03T00:07:50.241Z,16.3
2017-07-03T00:07:54.685Z,16.33
2017-07-03T00:07:59.139Z,16.32
2017-07-03T00:08:03.496Z,16.3
2017-07-03T00:08:07.824Z,16.27
2017-07-03T00:08:12.167Z,16.33
2017-07-03T00:08:16.491Z,16.34
2017-07-03T00:08:20.931Z,16.25
2017-07-03T00:08:25.253Z,16.29
2017-07-03T00:08:29.590Z,16.29
2017-07-03T00:08:33.995Z,16.29
2017-07-03T00:08:38.446Z,16.29
2017-07-03T00:08:42.899Z,16.33
2017-07-03T00:08:47.347Z,16.27
2017-07-03T00:08:51.813Z,16.23
2017-07-03T00:08:56.264Z,16.27
2017-07-03T00:09:00.713Z,16.29
2017-07-03T00:09:05.457Z,16.3
2017-07-03T00:09:09.904Z,16.3
2017-07-03T00:09:14.369Z,16.37
2017-07-03T00:09:18.836Z,16.17
2017-07-03T00:09:23.176Z,16.36
2017-07-03T00:09:27.503Z,16.29
2017-07-03T00:09:31.971Z,16.3
2017-07-03T00:09:36.440Z,16.29
2017-07-03T00:09:40.898Z,16.36
2017-07-03T00:09:45.359Z,16.34
2017-07-03T00:09:49.812Z,16.22
2017-07-03T00:09:54.277Z,16.32
2017-07-03T00:09:58.728Z,16.3
2017-07-03T00:10:03.171Z,16.32
2017-07-03T00:10:07.501Z,16.27
2017-07-03T00:10:11.835Z,16.36
2017-07-03T00:10:16.286Z,16.32
2017-07-03T00:10:20.514Z,16.27
2017-07-03T00:10:24.973Z,16.3
2017-07-03T00:10:29.412Z,16.29
2017-07-03T00:10:33.885Z,16.36
2017-07-03T00:10:38.203Z,16.3
2017-07-03T00:10:42.676Z,16.3
2017-07-03T00:10:47.136Z,16.36
2017-07-03T00:10:51.588Z,16.33
2017-07-03T00:10:56.040Z,16.41
2017-07-03T00:11:00.369Z,16.34
2017-07-03T00:11:04.813Z,16.36
2017-07-03T00:11:09.141Z,16.34
2017-07-03T00:11:13.593Z,16.32
2017-07-03T00:11:18.050Z,16.3
2017-07-03T00:11:22.500Z,16.32
2017-07-03T00:11:26.953Z,16.25
2017-07-03T00:11:31.396Z,16.23
2017-07-03T00:11:35.848Z,16.36
2017-07-03T00:11:40.288Z,16.32
2017-07-03T00:11:44.624Z,16.37
2017-07-03T00:11:49.070Z,16.32
2017-07-03T00:11:53.524Z,16.36
2017-07-03T00:11:57.969Z,16.29
2017-07-03T00:12:02.307Z,16.33
2017-07-03T00:12:06.757Z,16.36
2017-07-03T00:12:11.219Z,16.37
2017-07-03T00:12:15.684Z,16.36
2017-07-03T00:12:20.129Z,16.29
2017-07-03T00:12:24.576Z,16.36
2017-07-03T00:12:28.919Z,16.3
2017-07-03T00:12:33.138Z,16.36
2017-07-03T00:12:37.584Z,16.3
2017-07-03T00:12:41.917Z,16.29
2017-07-03T00:12:46.369Z,16.34
2017-07-03T00:12:50.707Z,16.32
2017-07-03T00:12:55.160Z,16.29
2017-07-03T00:12:59.602Z,16.32
2017-07-03T00:13:04.286Z,16.32
2017-07-03T00:13:08.516Z,16.32
2017-07-03T00:13:12.965Z,16.34
2017-07-03T00:13:17.301Z,16.33
2017-07-03T00:13:21.515Z,16.29
2017-07-03T00:13:25.993Z,16.3
2017-07-03T00:13:30.480Z,16.25
2017-07-03T00:13:34.937Z,16.32
2017-07-03T00:13:39.393Z,16.33
2017-07-03T00:13:43.728Z,16.3
2017-07-03T00:13:48.185Z,16.32
2017-07-03T00:13:52.644Z,16.37
2017-07-03T00:13:57.079Z,16.32
2017-07-03T00:14:01.425Z,16.33
2017-07-03T00:14:05.871Z,16.3
2017-07-03T00:14:10.217Z,16.27
2017-07-03T00:14:14.663Z,16.37
2017-07-03T00:14:19.112Z,16.34
2017-07-03T00:14:23.457Z,16.29
2017-07-03T00:14:27.912Z,16.32
2017-07-03T00:14:32.389Z,16.33
2017-07-03T00:14:36.844Z,16.29
2017-07-03T00:14:41.298Z,16.32
2017-07-03T00:14:45.747Z,16.32
2017-07-03T00:14:50.219Z,16.32
2017-07-03T00:14:54.701Z,16.32
2017-07-03T00:14:59.033Z,16.3
2017-07-03T00:15:03.494Z,16.32
2017-07-03T00:15:07.834Z,16.27
2017-07-03T00:15:12.159Z,16.26
2017-07-03T00:15:16.591Z,16.3
2017-07-03T00:15:21.031Z,16.36
2017-07-03T00:15:25.493Z,16.27
2017-07-03T00:15:29.949Z,16.32
2017-07-03T00:15:34.400Z,16.33
2017-07-03T00:15:38.836Z,16.32
2017-07-03T00:15:43.292Z,16.26
2017-07-03T00:15:47.756Z,16.25
2017-07-03T00:15:52.212Z,16.37
2017-07-03T00:15:56.664Z,16.29
2017-07-03T00:16:01.115Z,16.32
2017-07-03T00:16:05.559Z,16.26
2017-07-03T00:16:10.013Z,16.32
2017-07-03T00:16:14.467Z,16.27
2017-07-03T00:16:18.909Z,16.3
2017-07-03T00:16:23.241Z,16.32
2017-07-03T00:16:27.703Z,16.3
2017-07-03T00:16:32.148Z,16.29
2017-07-03T00:16:36.356Z,16.32
2017-07-03T00:16:40.668Z,16.33
2017-07-03T00:16:45.114Z,16.33
2017-07-03T00:16:49.566Z,16.33
2017-07-03T00:16:54.031Z,16.32
2017-07-03T00:16:58.491Z,16.3
2017-07-03T00:17:02.933Z,16.36
2017-07-03T00:17:07.407Z,16.33
2017-07-03T00:17:11.851Z,16.23
2017-07-03T00:17:16.315Z,16.33
2017-07-03T00:17:20.754Z,16.29
2017-07-03T00:17:24.976Z,16.36
2017-07-03T00:17:29.428Z,16.3
2017-07-03T00:17:33.903Z,16.32
2017-07-03T00:17:38.339Z,16.34
2017-07-03T00:17:42.795Z,16.32
2017-07-03T00:17:47.252Z,16.37
2017-07-03T00:17:51.707Z,16.33
2017-07-03T00:17:56.173Z,16.34
2017-07-03T00:18:00.608Z,16.33
2017-07-03T00:18:05.151Z,16.27
2017-07-03T00:18:09.480Z,16.36
2017-07-03T00:18:13.570Z,16.33
2017-07-03T00:18:17.787Z,16.36
2017-07-03T00:18:22.241Z,16.33
2017-07-03T00:18:26.685Z,16.32
2017-07-03T00:18:31.193Z,16.37
2017-07-03T00:18:35.639Z,16.33
2017-07-03T00:18:40.087Z,16.32
2017-07-03T00:18:44.423Z,16.36
2017-07-03T00:18:48.874Z,16.32
2017-07-03T00:18:53.309Z,16.25
2017-07-03T00:18:57.766Z,16.25
2017-07-03T00:19:02.259Z,16.37
2017-07-03T00:19:06.590Z,16.33
2017-07-03T00:19:11.056Z,16.33
2017-07-03T00:19:15.382Z,16.27
2017-07-03T00:19:19.720Z,16.33
2017-07-03T00:19:24.172Z,16.41
2017-07-03T00:19:28.646Z,16.36
2017-07-03T00:19:32.997Z,16.42
2017-07-03T00:19:37.440Z,16.3
2017-07-03T00:19:41.769Z,16.37
2017-07-03T00:19:46.230Z,16.23
2017-07-03T00:19:50.456Z,16.36
2017-07-03T00:19:54.907Z,16.33
2017-07-03T00:19:59.359Z,16.3
2017-07-03T00:20:03.886Z,16.29
2017-07-03T00:20:08.222Z,16.36
2017-07-03T00:20:12.691Z,16.33
2017-07-03T00:20:17.140Z,16.32
2017-07-03T00:20:21.606Z,16.29
2017-07-03T00:20:26.056Z,16.23
2017-07-03T00:20:30.510Z,16.4
2017-07-03T00:20:35.022Z,16.33
2017-07-03T00:20:39.243Z,16.32
2017-07-03T00:20:43.687Z,16.32
2017-07-03T00:20:48.130Z,16.36
2017-07-03T00:20:52.566Z,16.36
2017-07-03T00:20:57.028Z,16.3
2017-07-03T00:21:01.480Z,16.3
2017-07-03T00:21:05.921Z,16.37
2017-07-03T00:21:10.286Z,16.37
2017-07-03T00:21:14.627Z,16.34
2017-07-03T00:21:18.974Z,16.37
2017-07-03T00:21:23.418Z,16.34
2017-07-03T00:21:27.526Z,16.25
2017-07-03T00:21:31.976Z,16.29
2017-07-03T00:21:36.422Z,16.3
2017-07-03T00:21:40.884Z,16.32
2017-07-03T00:21:45.334Z,16.32
2017-07-03T00:21:49.797Z,16.34
2017-07-03T00:21:54.262Z,16.3
2017-07-03T00:21:58.723Z,16.32
2017-07-03T00:22:03.226Z,16.3
2017-07-03T00:22:07.682Z,16.36
2017-07-03T00:22:12.141Z,16.32
2017-07-03T00:22:16.463Z,16.33
2017-07-03T00:22:20.548Z,16.25
2017-07-03T00:22:25.010Z,16.29
2017-07-03T00:22:29.330Z,16.29
2017-07-03T00:22:33.695Z,16.27
2017-07-03T00:22:38.162Z,16.29
2017-07-03T00:22:42.493Z,16.23
2017-07-03T00:22:46.946Z,16.32
2017-07-03T00:22:51.450Z,16.33
2017-07-03T00:22:55.897Z,16.36
2017-07-03T00:23:00.236Z,16.32
2017-07-03T00:23:04.713Z,16.32
2017-07-03T00:23:09.180Z,16.26
2017-07-03T00:23:13.501Z,16.27
2017-07-03T00:23:17.848Z,16.29
2017-07-03T00:23:22.293Z,16.29
2017-07-03T00:23:26.644Z,16.29
2017-07-03T00:23:31.115Z,16.33
2017-07-03T00:23:35.460Z,16.3
2017-07-03T00:23:39.917Z,16.34
2017-07-03T00:23:44.358Z,16.29
2017-07-03T00:23:48.805Z,16.36
2017-07-03T00:23:53.147Z,16.3
2017-07-03T00:23:57.591Z,16.29
2017-07-03T00:24:02.142Z,16.26
2017-07-03T00:24:06.461Z,16.32
2017-07-03T00:24:10.916Z,16.27
2017-07-03T00:24:15.380Z,16.22
2017-07-03T00:24:19.845Z,16.34
2017-07-03T00:24:24.186Z,16.26
2017-07-03T00:24:28.523Z,16.33
2017-07-03T00:24:32.872Z,16.29
2017-07-03T00:24:37.205Z,16.29
2017-07-03T00:24:41.539Z,16.33
2017-07-03T00:24:45.985Z,16.29
2017-07-03T00:24:50.445Z,16.26
2017-07-03T00:24:54.898Z,16.3
2017-07-03T00:24:59.359Z,16.26
2017-07-03T00:25:03.907Z,16.32
2017-07-03T00:25:08.356Z,16.29
2017-07-03T00:25:12.833Z,16.32
2017-07-03T00:25:17.279Z,16.3
2017-07-03T00:25:21.592Z,16.22
2017-07-03T00:25:25.934Z,16.25
2017-07-03T00:25:30.159Z,16.22
2017-07-03T00:25:34.629Z,16.3
2017-07-03T00:25:39.076Z,16.33
2017-07-03T00:25:43.523Z,16.23
2017-07-03T00:25:47.978Z,16.22
2017-07-03T00:25:52.484Z,16.33
2017-07-03T00:25:56.958Z,16.26
2017-07-03T00:26:01.408Z,16.18
2017-07-03T00:26:05.876Z,16.11
2017-07-03T00:26:10.356Z,16.23
2017-07-03T00:26:14.799Z,16.16
2017-07-03T00:26:19.125Z,16.22
2017-07-03T00:26:23.455Z,16.13
2017-07-03T00:26:27.900Z,16.22
2017-07-03T00:26:32.286Z,16.23
2017-07-03T00:26:36.725Z,16.17
2017-07-03T00:26:41.062Z,16.16
2017-07-03T00:26:45.515Z,16.18
2017-07-03T00:26:49.954Z,16.14
2017-07-03T00:26:54.413Z,16.14
2017-07-03T00:26:58.871Z,16.14
2017-07-03T00:27:03.094Z,16.13
2017-07-03T00:27:07.558Z,16.25
2017-07-03T00:27:12.012Z,16.18
2017-07-03T00:27:16.458Z,16.17
2017-07-03T00:27:20.908Z,16.11
2017-07-03T00:27:25.239Z,16.22
2017-07-03T00:27:29.576Z,16.22
2017-07-03T00:27:34.039Z,16.22
2017-07-03T00:27:38.383Z,16.25
2017-07-03T00:27:42.811Z,16.18
2017-07-03T00:27:47.270Z,16.18
2017-07-03T00:27:51.627Z,16.13
2017-07-03T00:27:56.085Z,16.13
2017-07-03T00:28:00.543Z,16.26
2017-07-03T00:28:04.989Z,16.14
2017-07-03T00:28:09.445Z,16.13
2017-07-03T00:28:13.903Z,16.18
2017-07-03T00:28:18.354Z,16.23
2017-07-03T00:28:22.813Z,16.11
2017-07-03T00:28:27.045Z,16.23
2017-07-03T00:28:31.578Z,16.13
2017-07-03T00:28:35.912Z,16.08
2017-07-03T00:28:40.238Z,16.14
2017-07-03T00:28:44.880Z,16.18
2017-07-03T00:28:49.348Z,16.14
2017-07-03T00:28:53.805Z,16.16
2017-07-03T00:28:58.248Z,16.11
2017-07-03T00:29:02.688Z,16.14
2017-07-03T00:29:07.138Z,16.13
2017-07-03T00:29:11.626Z,16.14
2017-07-03T00:29:16.094Z,16.08
2017-07-03T00:29:20.548Z,16.11
2017-07-03T00:29:24.875Z,16.11
2017-07-03T00:29:29.241Z,16.14
2017-07-03T00:29:33.586Z,16.13
2017-07-03T00:29:38.042Z,16.14
2017-07-03T00:29:42.250Z,16.17
2017-07-03T00:29:46.708Z,16.08
2017-07-03T00:29:51.176Z,16.14
2017-07-03T00:29:55.651Z,16.06
2017-07-03T00:30:00.098Z,15.96
2017-07-03T00:30:04.427Z,16.18
2017-07-03T00:30:08.877Z,16.14
2017-07-03T00:30:13.323Z,16.07
2017-07-03T00:30:17.765Z,16.1
2017-07-03T00:30:21.986Z,16.08
2017-07-03T00:30:26.083Z,16.1
2017-07-03T00:30:30.422Z,16.06
2017-07-03T00:30:34.873Z,16.07
2017-07-03T00:30:39.201Z,16.03
2017-07-03T00:30:43.635Z,16.16
2017-07-03T00:30:48.158Z,16.04
2017-07-03T00:30:52.619Z,16.06
2017-07-03T00:30:57.077Z,16.07
2017-07-03T00:31:01.533Z,16.07
2017-07-03T00:31:05.996Z,16.04
2017-07-03T00:31:10.462Z,16.01
2017-07-03T00:31:14.909Z,15.99
2017-07-03T00:31:19.363Z,15.98
2017-07-03T00:31:23.820Z,16.01
2017-07-03T00:31:28.160Z,15.98
2017-07-03T00:31:32.472Z,16.07
2017-07-03T00:31:36.923Z,16.01
2017-07-03T00:31:41.376Z,16.04
2017-07-03T00:31:45.826Z,16.04
2017-07-03T00:31:50.158Z,16.01
2017-07-03T00:31:54.606Z,16.04
2017-07-03T00:31:58.939Z,16.03
2017-07-03T00:32:03.392Z,16.04
2017-07-03T00:32:07.839Z,16.01
2017-07-03T00:32:12.283Z,16.01
2017-07-03T00:32:16.618Z,16.1
2017-07-03T00:32:21.072Z,16.03
2017-07-03T00:32:25.510Z,16.16
2017-07-03T00:32:30.026Z,16.01
2017-07-03T00:32:34.456Z,15.98
2017-07-03T00:32:38.897Z,16.03
2017-07-03T00:32:43.230Z,15.99
2017-07-03T00:32:47.562Z,15.98
2017-07-03T00:32:52.033Z,16.03
2017-07-03T00:32:56.482Z,16.01
2017-07-03T00:33:00.915Z,16.01
2017-07-03T00:33:05.556Z,16.03
2017-07-03T00:33:10.066Z,16.07
2017-07-03T00:33:14.410Z,16.07
2017-07-03T00:33:18.870Z,16.06
2017-07-03T00:33:23.315Z,15.98
2017-07-03T00:33:27.779Z,16.03
2017-07-03T00:33:31.869Z,15.99
2017-07-03T00:33:36.312Z,16.04
2017-07-03T00:33:40.770Z,16.07
2017-07-03T00:33:45.094Z,15.95
2017-07-03T00:33:49.561Z,16.01
2017-07-03T00:33:54.022Z,16.01
2017-07-03T00:33:58.479Z,15.99
2017-07-03T00:34:03.010Z,16.03
2017-07-03T00:34:07.470Z,16.04
2017-07-03T00:34:11.922Z,16.01
2017-07-03T00:34:16.391Z,16.03
2017-07-03T00:34:20.822Z,16.01
2017-07-03T00:34:25.158Z,15.96
2017-07-03T00:34:29.667Z,16.04
2017-07-03T00:34:34.008Z,16.1
2017-07-03T00:34:38.443Z,16.03
2017-07-03T00:34:42.780Z,16.06
2017-07-03T00:34:47.250Z,16.03
2017-07-03T00:34:51.707Z,16.13
2017-07-03T00:34:56.179Z,15.98
2017-07-03T00:35:00.636Z,16.04
2017-07-03T00:35:05.073Z,16.01
2017-07-03T00:35:09.519Z,15.98
2017-07-03T00:35:13.968Z,15.96
2017-07-03T00:35:18.412Z,16.03
2017-07-03T00:35:22.741Z,15.93
2017-07-03T00:35:27.182Z,15.95
2017-07-03T00:35:31.526Z,15.89
2017-07-03T00:35:35.984Z,16.04
2017-07-03T00:35:40.433Z,15.95
2017-07-03T00:35:44.888Z,15.92
2017-07-03T00:35:49.338Z,15.96
2017-07-03T00:35:53.786Z,16.01
2017-07-03T00:35:58.240Z,16.08
2017-07-03T00:36:02.696Z,15.98
2017-07-03T00:36:07.181Z,15.96
2017-07-03T00:36:11.642Z,16.13
2017-07-03T00:36:16.074Z,15.95
2017-07-03T00:36:20.539Z,15.92
2017-07-03T00:36:24.999Z,16.08
2017-07-03T00:36:29.460Z,15.93
2017-07-03T00:36:33.918Z,16.03
2017-07-03T00:36:38.252Z,16.04
2017-07-03T00:36:42.715Z,16.04
2017-07-03T00:36:47.047Z,16.07
2017-07-03T00:36:51.516Z,16.07
2017-07-03T00:36:55.954Z,15.91
2017-07-03T00:37:00.296Z,15.91
2017-07-03T00:37:04.895Z,15.89
2017-07-03T00:37:09.346Z,15.96
2017-07-03T00:37:13.793Z,16.07
2017-07-03T00:37:18.239Z,15.96
2017-07-03T00:37:22.451Z,16.01
2017-07-03T00:37:26.795Z,16.07
2017-07-03T00:37:31.293Z,16.03
2017-07-03T00:37:35.624Z,15.88
2017-07-03T00:37:39.954Z,16.04
2017-07-03T00:37:44.396Z,16.06
2017-07-03T00:37:48.612Z,16.07
2017-07-03T00:37:53.058Z,15.96
2017-07-03T00:37:57.526Z,15.99
2017-07-03T00:38:02.346Z,15.92
2017-07-03T00:38:06.793Z,16.08
2017-07-03T00:38:11.246Z,15.96
2017-07-03T00:38:15.680Z,15.91
2017-07-03T00:38:20.135Z,15.98
2017-07-03T00:38:24.488Z,16.03
2017-07-03T00:38:28.824Z,15.96
2017-07-03T00:38:33.283Z,16.04
2017-07-03T00:38:37.595Z,16.06
2017-07-03T00:38:42.067Z,15.92
2017-07-03T00:38:46.531Z,15.99
2017-07-03T00:38:50.878Z,15.92
2017-07-03T00:38:55.326Z,15.95
2017-07-03T00:38:59.780Z,15.92
2017-07-03T00:39:04.378Z,15.89
2017-07-03T00:39:08.838Z,15.98
2017-07-03T00:39:13.304Z,15.91
2017-07-03T00:39:17.747Z,16.04
2017-07-03T00:39:22.210Z,15.92
2017-07-03T00:39:26.678Z,15.98
2017-07-03T00:39:31.026Z,15.89
2017-07-03T00:39:35.473Z,16.04
2017-07-03T00:39:39.811Z,16.03
2017-07-03T00:39:44.147Z,15.88
2017-07-03T00:39:48.482Z,15.92
2017-07-03T00:39:52.938Z,15.99
2017-07-03T00:39:57.385Z,15.98
2017-07-03T00:40:01.826Z,16.06
2017-07-03T00:40:06.283Z,15.89
2017-07-03T00:40:10.741Z,15.88
2017-07-03T00:40:15.195Z,15.98
2017-07-03T00:40:19.652Z,16.01
2017-07-03T00:40:23.988Z,16.04
2017-07-03T00:40:28.466Z,15.99
2017-07-03T00:40:32.913Z,15.96
2017-07-03T00:40:37.240Z,15.92
2017-07-03T00:40:41.570Z,15.98
2017-07-03T00:40:46.032Z,15.92
2017-07-03T00:40:50.482Z,16.01
2017-07-03T00:40:54.925Z,15.86
2017-07-03T00:40:59.380Z,15.89
2017-07-03T00:41:03.841Z,16.01
2017-07-03T00:41:08.331Z,15.95
2017-07-03T00:41:12.664Z,15.98
2017-07-03T00:41:17.112Z,16.01
2017-07-03T00:41:21.560Z,15.96
2017-07-03T00:41:26.009Z,16.07
2017-07-03T00:41:30.503Z,15.92
2017-07-03T00:41:34.958Z,15.93
2017-07-03T00:41:39.292Z,15.93
2017-07-03T00:41:43.748Z,15.95
2017-07-03T00:41:48.215Z,15.92
2017-07-03T00:41:52.661Z,15.95
2017-07-03T00:41:57.112Z,15.99
2017-07-03T00:42:01.726Z,15.89
2017-07-03T00:42:06.085Z,16.04
2017-07-03T00:42:10.290Z,15.99
2017-07-03T00:42:14.734Z,16.03
2017-07-03T00:42:19.186Z,15.95
2017-07-03T00:42:23.646Z,16.06
2017-07-03T00:42:28.093Z,16.03
2017-07-03T00:42:32.310Z,16.01
2017-07-03T00:42:36.749Z,16.03
2017-07-03T00:42:41.074Z,15.92
2017-07-03T00:42:45.522Z,16.04
2017-07-03T00:42:49.984Z,15.95
2017-07-03T00:42:54.440Z,16.04
2017-07-03T00:42:58.909Z,15.89
2017-07-03T00:43:03.301Z,15.95
2017-07-03T00:43:07.647Z,15.91
2017-07-03T00:43:12.104Z,16.01
2017-07-03T00:43:16.557Z,16.07
2017-07-03T00:43:21.005Z,16.03
2017-07-03T00:43:25.448Z,16.04
2017-07-03T00:43:29.916Z,16.03
2017-07-03T00:43:34.380Z,16.08
2017-07-03T00:43:38.841Z,16.03
2017-07-03T00:43:43.315Z,15.99
2017-07-03T00:43:47.783Z,16.06
2017-07-03T00:43:52.005Z,16.06
2017-07-03T00:43:56.446Z,16.01
2017-07-03T00:44:00.900Z,15.99
2017-07-03T00:44:05.416Z,15.88
2017-07-03T00:44:09.876Z,15.99
2017-07-03T00:44:14.326Z,16.06
2017-07-03T00:44:18.788Z,15.91
2017-07-03T00:44:23.260Z,15.92
2017-07-03T00:44:27.709Z,16.06
2017-07-03T00:44:31.922Z,15.98
2017-07-03T00:44:36.263Z,16.07
2017-07-03T00:44:40.494Z,16.03
2017-07-03T00:44:44.939Z,15.98
2017-07-03T00:44:49.286Z,15.98
2017-07-03T00:44:53.743Z,16.04
2017-07-03T00:44:58.195Z,15.96
2017-07-03T00:45:02.953Z,15.96
2017-07-03T00:45:07.407Z,15.96
2017-07-03T00:45:11.850Z,15.95
2017-07-03T00:45:16.292Z,15.98
2017-07-03T00:45:20.510Z,15.95
2017-07-03T00:45:24.950Z,15.98
2017-07-03T00:45:29.284Z,15.86
2017-07-03T00:45:33.744Z,16.01
2017-07-03T00:45:38.195Z,15.96
2017-07-03T00:45:42.528Z,15.98
2017-07-03T00:45:46.970Z,16.06
2017-07-03T00:45:51.413Z,15.99
2017-07-03T00:45:55.646Z,15.99
2017-07-03T00:46:00.087Z,15.98
2017-07-03T00:46:04.733Z,15.99
2017-07-03T00:46:09.060Z,15.95
2017-07-03T00:46:13.513Z,15.99
2017-07-03T00:46:17.955Z,15.98
2017-07-03T00:46:22.417Z,15.92
2017-07-03T00:46:26.878Z,15.92
2017-07-03T00:46:31.206Z,15.95
2017-07-03T00:46:35.527Z,15.99
2017-07-03T00:46:39.987Z,15.95
2017-07-03T00:46:44.310Z,15.89
2017-07-03T00:46:48.748Z,15.92
2017-07-03T00:46:53.210Z,15.89
2017-07-03T00:46:57.650Z,15.95
2017-07-03T00:47:02.344Z,15.93
2017-07-03T00:47:06.438Z,15.95
2017-07-03T00:47:10.913Z,15.93
2017-07-03T00:47:15.375Z,15.91
2017-07-03T00:47:19.879Z,15.92
2017-07-03T00:47:24.211Z,15.93
2017-07-03T00:47:28.658Z,15.98
2017-07-03T00:47:33.117Z,15.93
2017-07-03T00:47:37.574Z,15.93
2017-07-03T00:47:42.039Z,15.93
2017-07-03T00:47:46.468Z,15.98
2017-07-03T00:47:50.911Z,15.91
2017-07-03T00:47:55.232Z,15.92
2017-07-03T00:47:59.689Z,15.93
2017-07-03T00:48:04.147Z,15.89
2017-07-03T00:48:08.599Z,15.88
2017-07-03T00:48:13.050Z,15.92
2017-07-03T00:48:17.555Z,15.89
2017-07-03T00:48:21.999Z,15.85
2017-07-03T00:48:26.442Z,15.88
2017-07-03T00:48:30.901Z,15.85
2017-07-03T00:48:35.257Z,15.93
2017-07-03T00:48:39.484Z,15.86
2017-07-03T00:48:43.934Z,15.92
2017-07-03T00:48:48.265Z,15.93
2017-07-03T00:48:52.713Z,15.8
2017-07-03T00:48:57.179Z,15.89
2017-07-03T00:49:01.642Z,15.96
2017-07-03T00:49:06.084Z,15.86
2017-07-03T00:49:10.544Z,15.81
2017-07-03T00:49:15.001Z,15.88
2017-07-03T00:49:19.334Z,15.86
2017-07-03T00:49:23.786Z,15.85
2017-07-03T00:49:28.247Z,15.92
2017-07-03T00:49:32.685Z,15.88
2017-07-03T00:49:37.032Z,15.81
2017-07-03T00:49:41.476Z,15.86
2017-07-03T00:49:45.939Z,15.86
2017-07-03T00:49:50.393Z,15.81
2017-07-03T00:49:54.610Z,15.89
2017-07-03T00:49:59.080Z,15.88
2017-07-03T00:50:03.405Z,15.86
2017-07-03T00:50:07.860Z,15.86
2017-07-03T00:50:12.313Z,15.86
2017-07-03T00:50:16.545Z,15.85
2017-07-03T00:50:20.884Z,15.78
2017-07-03T00:50:25.199Z,15.86
2017-07-03T00:50:29.645Z,15.86
2017-07-03T00:50:34.109Z,15.88
2017-07-03T00:50:38.579Z,15.8
2017-07-03T00:50:42.917Z,15.86
2017-07-03T00:50:47.249Z,15.8
2017-07-03T00:50:51.680Z,15.84
2017-07-03T00:50:56.126Z,15.85
2017-07-03T00:51:00.573Z,15.8
2017-07-03T00:51:05.021Z,15.77
2017-07-03T00:51:09.469Z,15.78
2017-07-03T00:51:13.800Z,15.84
2017-07-03T00:51:18.260Z,15.85
2017-07-03T00:51:22.698Z,15.77
2017-07-03T00:51:27.138Z,15.76
2017-07-03T00:51:31.597Z,15.78
2017-07-03T00:51:36.041Z,15.77
2017-07-03T00:51:40.424Z,15.73
2017-07-03T00:51:44.878Z,15.77
2017-07-03T00:51:49.319Z,15.8
2017-07-03T00:51:53.551Z,15.76
2017-07-03T00:51:57.899Z,15.78
2017-07-03T00:52:02.357Z,15.78
2017-07-03T00:52:06.810Z,15.8
2017-07-03T00:52:11.254Z,15.77
2017-07-03T00:52:15.720Z,15.73
2017-07-03T00:52:20.060Z,15.8
2017-07-03T00:52:24.516Z,15.8
2017-07-03T00:52:28.952Z,15.8
2017-07-03T00:52:33.396Z,15.78
2017-07-03T00:52:37.860Z,15.78
2017-07-03T00:52:42.073Z,15.76
2017-07-03T00:52:46.533Z,15.77
2017-07-03T00:52:50.992Z,15.73
2017-07-03T00:52:55.439Z,15.78
2017-07-03T00:52:59.895Z,15.74
2017-07-03T00:53:04.343Z,15.73
2017-07-03T00:53:08.795Z,15.76
2017-07-03T00:53:13.249Z,15.76
2017-07-03T00:53:17.566Z,15.74
2017-07-03T00:53:21.895Z,15.76
2017-07-03T00:53:26.239Z,15.78
2017-07-03T00:53:30.569Z,15.71
2017-07-03T00:53:35.057Z,15.71
2017-07-03T00:53:39.519Z,15.78
2017-07-03T00:53:43.863Z,15.77
2017-07-03T00:53:48.624Z,15.71
2017-07-03T00:53:52.973Z,15.73
2017-07-03T00:53:57.238Z,15.68
2017-07-03T00:54:01.691Z,15.76
2017-07-03T00:54:06.142Z,15.77
2017-07-03T00:54:10.580Z,15.74
2017-07-03T00:54:15.050Z,15.73
2017-07-03T00:54:19.147Z,15.73
2017-07-03T00:54:23.609Z,15.71
2017-07-03T00:54:28.068Z,15.66
2017-07-03T00:54:32.541Z,15.71
2017-07-03T00:54:36.943Z,15.71
2017-07-03T00:54:41.404Z,15.76
2017-07-03T00:54:45.747Z,15.7
2017-07-03T00:54:50.096Z,15.7
2017-07-03T00:54:54.450Z,15.73
2017-07-03T00:54:58.909Z,15.73
2017-07-03T00:55:03.560Z,15.7
2017-07-03T00:55:07.770Z,15.76
2017-07-03T00:55:12.113Z,15.71
2017-07-03T00:55:16.566Z,15.66
2017-07-03T00:55:21.016Z,15.73
2017-07-03T00:55:25.465Z,15.68
2017-07-03T00:55:29.912Z,15.66
2017-07-03T00:55:34.376Z,15.68
2017-07-03T00:55:38.831Z,15.66
2017-07-03T00:55:43.260Z,15.67
2017-07-03T00:55:47.707Z,15.74
2017-07-03T00:55:51.917Z,15.73
2017-07-03T00:55:56.385Z,15.73
2017-07-03T00:56:00.720Z,15.74
2017-07-03T00:56:05.179Z,15.7
2017-07-03T00:56:09.629Z,15.67
2017-07-03T00:56:14.089Z,15.66
2017-07-03T00:56:18.554Z,15.76
2017-07-03T00:56:22.998Z,15.64
2017-07-03T00:56:27.448Z,15.64
2017-07-03T00:56:31.901Z,15.74
2017-07-03T00:56:36.291Z,15.66
2017-07-03T00:56:40.608Z,15.6
2017-07-03T00:56:44.821Z,15.62
2017-07-03T00:56:49.271Z,15.67
2017-07-03T00:56:53.605Z,15.62
2017-07-03T00:56:57.949Z,15.6
2017-07-03T00:57:02.286Z,15.56
2017-07-03T00:57:06.612Z,15.66